createdAt,value
2017-11-24T00:02:11.468Z,4.08
2017-11-24T00:04:38.187Z,3.95
2017-11-24T00:07:05.695Z,3.98
2017-11-24T00:09:32.427Z,4.03
2017-11-24T00:11:59.135Z,4.05
2017-11-24T00:14:25.868Z,3.75
2017-11-24T00:16:52.633Z,3.53
2017-11-24T00:19:19.394Z,3.68
2017-11-24T00:21:46.037Z,3.55
2017-11-24T00:24:12.720Z,3.53
2017-11-24T00:26:39.434Z,3.74
2017-11-24T00:29:06.099Z,3.82
2017-11-24T00:31:32.852Z,3.86
2017-11-24T00:34:00.355Z,3.77
2017-11-24T00:36:27.107Z,3.86
2017-11-24T00:38:53.776Z,3.90
2017-11-24T00:41:20.443Z,3.80
2017-11-24T00:43:47.844Z,3.81
2017-11-24T00:46:14.570Z,3.74
2017-11-24T00:48:41.264Z,3.81
2017-11-24T00:51:08.013Z,3.77
2017-11-24T00:53:34.716Z,3.79
2017-11-24T00:56:01.383Z,3.74
2017-11-24T00:58:28.061Z,3.55
2017-11-24T01:00:55.480Z,3.45
2017-11-24T01:03:22.135Z,3.58
2017-11-24T01:05:48.813Z,3.65
2017-11-24T01:08:16.249Z,3.52
2017-11-24T01:10:42.956Z,3.56
2017-11-24T01:13:09.596Z,3.49
2017-11-24T01:15:36.287Z,3.49
2017-11-24T01:18:03.021Z,3.44
2017-11-24T01:20:29.724Z,3.50
2017-11-24T01:22:56.396Z,3.53
2017-11-24T01:25:23.061Z,3.63
2017-11-24T01:27:49.763Z,3.62
2017-11-24T01:30:16.460Z,3.63
2017-11-24T01:32:43.913Z,3.70
2017-11-24T01:35:10.649Z,3.77
2017-11-24T01:37:37.323Z,3.73
2017-11-24T01:40:04.004Z,3.74
2017-11-24T01:42:31.434Z,3.76
2017-11-24T01:44:58.201Z,3.82
2017-11-24T01:47:24.892Z,3.78
2017-11-24T01:49:51.613Z,3.82
2017-11-24T01:52:18.316Z,3.84
2017-11-24T01:54:44.980Z,3.89
2017-11-24T01:57:11.633Z,3.91
2017-11-24T01:59:38.403Z,3.77
2017-11-24T02:02:05.123Z,3.89
2017-11-24T02:04:31.877Z,3.89
2017-11-24T02:06:58.601Z,3.94
2017-11-24T02:09:25.295Z,3.95
2017-11-24T02:11:52.703Z,3.88
2017-11-24T02:14:19.423Z,3.86
2017-11-24T02:16:46.098Z,3.85
2017-11-24T02:19:12.839Z,3.88
2017-11-24T02:21:39.564Z,3.94
2017-11-24T02:24:06.323Z,3.94
2017-11-24T02:26:33.099Z,3.86
2017-11-24T02:28:59.854Z,3.88
2017-11-24T02:31:27.282Z,3.78
2017-11-24T02:33:54.053Z,3.76
2017-11-24T02:36:20.910Z,3.58
2017-11-24T02:38:48.429Z,3.63
2017-11-24T02:41:15.193Z,3.65
2017-11-24T02:43:41.975Z,3.64
2017-11-24T02:46:09.464Z,3.62
2017-11-24T02:48:36.299Z,3.60
2017-11-24T02:51:03.094Z,3.60
2017-11-24T02:53:29.888Z,3.52
2017-11-24T02:55:56.632Z,3.14
2017-11-24T02:58:23.432Z,3.28
2017-11-24T03:00:50.132Z,3.18
2017-11-24T03:03:16.840Z,2.93
2017-11-24T03:05:44.291Z,2.81
2017-11-24T03:08:10.944Z,2.95
2017-11-24T03:10:38.392Z,2.89
2017-11-24T03:13:05.077Z,2.98
2017-11-24T03:15:31.739Z,3.02
2017-11-24T03:17:58.453Z,3.09
2017-11-24T03:20:25.178Z,3.18
2017-11-24T03:22:52.604Z,3.14
2017-11-24T03:25:19.287Z,3.01
2017-11-24T03:27:46.065Z,3.12
2017-11-24T03:30:12.764Z,3.19
2017-11-24T03:32:40.226Z,3.30
2017-11-24T03:35:07.731Z,3.33
2017-11-24T03:37:34.385Z,3.32
2017-11-24T03:40:01.064Z,3.30
2017-11-24T03:42:28.752Z,3.32
2017-11-24T03:44:56.186Z,3.09
2017-11-24T03:47:22.918Z,3.19
2017-11-24T03:49:49.683Z,3.17
2017-11-24T03:52:16.419Z,3.22
2017-11-24T03:54:43.126Z,3.19
2017-11-24T03:57:09.826Z,3.19
2017-11-24T03:59:37.259Z,3.18
2017-11-24T04:02:03.974Z,3.13
2017-11-24T04:04:30.675Z,3.15
2017-11-24T04:06:57.378Z,3.17
2017-11-24T04:09:24.118Z,3.17
2017-11-24T04:11:50.899Z,3.09
2017-11-24T04:14:18.399Z,2.98
2017-11-24T04:16:45.148Z,2.94
2017-11-24T04:19:11.960Z,3.05
2017-11-24T04:21:38.772Z,3.03
2017-11-24T04:24:05.564Z,3.01
2017-11-24T04:26:32.280Z,2.95
2017-11-24T04:28:58.979Z,2.87
2017-11-24T04:31:25.718Z,2.58
2017-11-24T04:33:52.405Z,2.75
2017-11-24T04:36:19.083Z,2.58
2017-11-24T04:38:45.792Z,2.72
2017-11-24T04:41:13.549Z,2.57
2017-11-24T04:43:40.305Z,2.67
2017-11-24T04:46:06.999Z,2.69
2017-11-24T04:48:33.715Z,2.73
2017-11-24T04:51:00.418Z,2.72
2017-11-24T04:53:27.117Z,2.72
2017-11-24T04:55:53.886Z,2.62
2017-11-24T04:58:20.584Z,2.61
2017-11-24T05:00:48.016Z,2.66
2017-11-24T05:03:14.761Z,2.53
2017-11-24T05:05:41.434Z,2.64
2017-11-24T05:08:09.145Z,2.66
2017-11-24T05:10:35.933Z,2.68
2017-11-24T05:13:03.365Z,2.67
2017-11-24T05:15:30.103Z,2.71
2017-11-24T05:17:57.741Z,2.68
2017-11-24T05:20:25.379Z,2.67
2017-11-24T05:22:52.055Z,2.53
2017-11-24T05:25:18.743Z,2.50
2017-11-24T05:27:45.451Z,2.40
2017-11-24T05:30:12.237Z,2.41
2017-11-24T05:32:39.263Z,2.48
2017-11-24T05:35:06.978Z,2.56
2017-11-24T05:37:33.658Z,2.63
2017-11-24T05:40:00.352Z,2.51
2017-11-24T05:42:27.052Z,2.48
2017-11-24T05:44:53.730Z,2.55
2017-11-24T05:47:20.415Z,2.61
2017-11-24T05:49:47.199Z,2.58
2017-11-24T05:52:13.877Z,2.61
2017-11-24T05:54:41.297Z,2.60
2017-11-24T05:57:07.988Z,2.58
2017-11-24T05:59:34.704Z,2.62
2017-11-24T06:02:01.459Z,2.50
2017-11-24T06:04:28.143Z,2.51
2017-11-24T06:06:55.034Z,2.54
2017-11-24T06:09:22.600Z,2.49
2017-11-24T06:11:49.343Z,2.43
2017-11-24T06:14:16.131Z,2.38
2017-11-24T06:16:42.842Z,2.46
2017-11-24T06:19:09.542Z,2.55
2017-11-24T06:21:36.263Z,2.57
2017-11-24T06:24:03.006Z,2.62
2017-11-24T06:26:29.656Z,2.49
2017-11-24T06:28:56.375Z,2.63
2017-11-24T06:31:23.797Z,2.60
2017-11-24T06:33:50.491Z,2.74
2017-11-24T06:36:17.192Z,2.74
2017-11-24T06:38:43.908Z,2.88
2017-11-24T06:41:10.583Z,3.13
2017-11-24T06:43:37.320Z,3.38
2017-11-24T06:46:04.002Z,3.77
2017-11-24T06:48:30.688Z,4.57
2017-11-24T06:50:57.424Z,5.38
2017-11-24T06:53:24.144Z,5.91
2017-11-24T06:55:50.849Z,6.53
2017-11-24T06:58:17.542Z,7.51
2017-11-24T07:00:44.321Z,9.33
2017-11-24T07:03:11.049Z,11.29
2017-11-24T07:05:37.733Z,13.24
2017-11-24T07:08:05.194Z,14.99
2017-11-24T07:10:32.702Z,16.27
2017-11-24T07:12:59.432Z,17.57
2017-11-24T07:15:26.151Z,18.68
2017-11-24T07:17:53.634Z,19.73
2017-11-24T07:20:20.370Z,20.64
2017-11-24T07:22:47.797Z,21.67
2017-11-24T07:25:15.294Z,21.81
2017-11-24T07:27:42.706Z,23.15
2017-11-24T07:30:09.448Z,24.28
2017-11-24T07:32:36.103Z,24.98
2017-11-24T07:35:02.789Z,25.70
2017-11-24T07:37:29.474Z,26.19
2017-11-24T07:39:56.167Z,27.15
2017-11-24T07:42:23.650Z,27.71
2017-11-24T07:44:50.394Z,28.44
2017-11-24T07:47:17.129Z,29.11
2017-11-24T07:49:43.783Z,29.42
2017-11-24T07:52:10.509Z,29.00
2017-11-24T07:54:37.187Z,28.06
2017-11-24T07:57:03.900Z,29.13
2017-11-24T07:59:30.546Z,30.26
2017-11-24T08:01:57.258Z,29.09
2017-11-24T08:04:24.691Z,27.40
2017-11-24T08:06:51.361Z,26.60
2017-11-24T08:09:18.786Z,29.29
2017-11-24T08:11:45.513Z,29.64
2017-11-24T08:14:12.214Z,30.09
2017-11-24T08:16:39.650Z,31.07
2017-11-24T08:19:16.587Z,31.45
2017-11-24T08:21:43.747Z,32.23
2017-11-24T08:24:10.532Z,31.87
2017-11-24T08:26:37.228Z,32.34
2017-11-24T08:29:03.931Z,31.48
2017-11-24T08:31:30.631Z,32.55
2017-11-24T08:33:57.396Z,32.92
2017-11-24T08:36:24.131Z,32.39
2017-11-24T08:38:50.832Z,32.67
2017-11-24T08:41:18.245Z,32.96
2017-11-24T08:43:44.908Z,32.66
2017-11-24T08:46:11.631Z,33.59
2017-11-24T08:48:44.919Z,33.85
2017-11-24T08:51:11.643Z,33.36
2017-11-24T08:53:38.330Z,30.18
2017-11-24T08:56:05.074Z,31.64
2017-11-24T08:58:31.774Z,33.07
2017-11-24T09:00:58.532Z,33.85
2017-11-24T09:03:25.235Z,32.99
2017-11-24T09:05:52.727Z,34.18
2017-11-24T09:08:19.421Z,33.76
2017-11-24T09:10:46.142Z,33.71
2017-11-24T09:13:12.836Z,34.20
2017-11-24T09:15:39.547Z,35.64
2017-11-24T09:18:06.259Z,35.74
2017-11-24T09:20:32.956Z,34.85
2017-11-24T09:23:00.371Z,34.82
2017-11-24T09:25:27.149Z,34.35
2017-11-24T09:27:54.674Z,35.97
2017-11-24T09:30:21.401Z,35.82
2017-11-24T09:32:48.195Z,34.14
2017-11-24T09:35:14.926Z,32.86
2017-11-24T09:37:41.648Z,33.39
2017-11-24T09:40:09.203Z,33.49
2017-11-24T09:42:35.978Z,33.60
2017-11-24T09:45:02.729Z,31.55
2017-11-24T09:47:29.483Z,33.22
2017-11-24T09:49:56.948Z,33.81
2017-11-24T09:52:24.505Z,34.76
2017-11-24T09:54:51.986Z,33.95
2017-11-24T09:57:19.463Z,34.22
2017-11-24T09:59:46.217Z,33.34
2017-11-24T10:02:12.912Z,34.07
2017-11-24T10:04:39.598Z,33.25
2017-11-24T10:07:06.328Z,33.89
2017-11-24T10:09:33.004Z,33.43
2017-11-24T10:11:59.985Z,32.55
2017-11-24T10:14:26.766Z,29.45
2017-11-24T10:16:54.241Z,30.39
2017-11-24T10:19:20.928Z,31.32
2017-11-24T10:21:53.635Z,30.71
2017-11-24T10:24:21.147Z,30.61
2017-11-24T10:26:48.769Z,30.94
2017-11-24T10:29:16.171Z,31.43
2017-11-24T10:31:42.872Z,31.62
2017-11-24T10:34:10.406Z,31.63
2017-11-24T10:36:37.222Z,31.50
2017-11-24T10:39:04.009Z,30.33
2017-11-24T10:41:30.687Z,31.19
2017-11-24T10:43:57.401Z,31.69
2017-11-24T10:46:24.857Z,30.61
2017-11-24T10:48:51.592Z,32.80
2017-11-24T10:51:18.326Z,32.82
2017-11-24T10:53:45.083Z,32.99
2017-11-24T10:56:11.777Z,32.10
2017-11-24T10:58:38.437Z,31.59
2017-11-24T11:01:05.866Z,32.15
2017-11-24T11:03:32.599Z,31.81
2017-11-24T11:06:00.013Z,30.44
2017-11-24T11:08:26.684Z,29.95
2017-11-24T11:10:53.522Z,31.81
2017-11-24T11:13:20.259Z,30.34
2017-11-24T11:15:46.985Z,29.96
2017-11-24T11:18:13.678Z,29.80
2017-11-24T11:20:41.138Z,30.34
2017-11-24T11:23:08.594Z,30.07
2017-11-24T11:25:36.143Z,30.96
2017-11-24T11:28:02.877Z,30.29
2017-11-24T11:30:30.112Z,29.78
2017-11-24T11:32:56.888Z,28.41
2017-11-24T11:35:23.603Z,28.81
2017-11-24T11:37:50.412Z,29.08
2017-11-24T11:40:17.189Z,28.23
2017-11-24T11:42:43.893Z,27.28
2017-11-24T11:45:11.371Z,28.24
2017-11-24T11:47:38.030Z,28.82
2017-11-24T11:50:04.819Z,27.96
2017-11-24T11:52:31.672Z,28.63
2017-11-24T11:54:58.459Z,28.16
2017-11-24T11:57:25.101Z,26.75
2017-11-24T11:59:51.895Z,26.00
2017-11-24T12:02:18.712Z,23.59
2017-11-24T12:04:45.497Z,23.17
2017-11-24T12:07:12.977Z,23.79
2017-11-24T12:09:40.714Z,23.39
2017-11-24T12:12:07.424Z,23.28
2017-11-24T12:14:40.987Z,23.38
2017-11-24T12:17:08.386Z,23.06
2017-11-24T12:19:35.120Z,22.76
2017-11-24T12:22:01.798Z,22.64
2017-11-24T12:24:28.500Z,23.08
2017-11-24T12:26:55.998Z,24.06
2017-11-24T12:29:22.773Z,24.40
2017-11-24T12:31:50.447Z,22.87
2017-11-24T12:34:17.938Z,22.49
2017-11-24T12:36:44.677Z,21.54
2017-11-24T12:39:13.180Z,21.02
2017-11-24T12:41:39.893Z,20.46
2017-11-24T12:44:06.635Z,20.02
2017-11-24T12:46:34.056Z,20.40
2017-11-24T12:49:00.705Z,19.78
2017-11-24T12:51:27.415Z,19.83
2017-11-24T12:53:54.151Z,19.73
2017-11-24T12:56:20.930Z,19.55
2017-11-24T12:58:47.683Z,18.69
2017-11-24T13:01:14.352Z,18.32
2017-11-24T13:03:41.992Z,17.82
2017-11-24T13:06:08.727Z,17.62
2017-11-24T13:08:35.417Z,17.80
2017-11-24T13:11:02.836Z,17.18
2017-11-24T13:13:29.536Z,17.60
2017-11-24T13:15:56.198Z,17.18
2017-11-24T13:18:22.911Z,17.13
2017-11-24T13:20:49.738Z,16.39
2017-11-24T13:23:17.168Z,16.37
2017-11-24T13:25:43.860Z,15.97
2017-11-24T13:28:10.578Z,15.77
2017-11-24T13:30:38.033Z,15.63
2017-11-24T13:33:04.702Z,15.85
2017-11-24T13:35:31.408Z,15.93
2017-11-24T13:37:58.078Z,15.97
2017-11-24T13:40:25.500Z,16.11
2017-11-24T13:42:52.203Z,16.15
2017-11-24T13:45:18.897Z,16.18
2017-11-24T13:47:45.584Z,16.02
2017-11-24T13:50:12.329Z,15.99
2017-11-24T13:52:39.055Z,15.74
2017-11-24T13:55:06.485Z,15.81
2017-11-24T13:57:33.261Z,15.79
2017-11-24T14:00:00.684Z,15.58
2017-11-24T14:02:27.368Z,15.60
2017-11-24T14:04:54.936Z,15.44
2017-11-24T14:07:21.638Z,15.17
2017-11-24T14:09:48.336Z,15.12
2017-11-24T14:12:15.073Z,15.02
2017-11-24T14:14:41.742Z,14.75
2017-11-24T14:17:08.411Z,14.82
2017-11-24T14:19:35.089Z,14.70
2017-11-24T14:22:03.232Z,14.48
2017-11-24T14:24:29.943Z,14.30
2017-11-24T14:26:56.644Z,14.25
2017-11-24T14:29:24.077Z,14.14
2017-11-24T14:31:50.738Z,13.90
2017-11-24T14:34:18.172Z,13.74
2017-11-24T14:36:44.843Z,13.56
2017-11-24T14:39:12.338Z,13.38
2017-11-24T14:41:39.122Z,13.42
2017-11-24T14:44:05.797Z,13.37
2017-11-24T14:46:33.216Z,13.24
2017-11-24T14:48:59.898Z,13.08
2017-11-24T14:51:27.336Z,13.13
2017-11-24T14:53:54.024Z,13.25
2017-11-24T14:56:20.757Z,13.23
2017-11-24T14:58:48.205Z,13.22
2017-11-24T15:01:15.675Z,13.19
2017-11-24T15:03:43.181Z,13.15
2017-11-24T15:06:09.976Z,13.01
2017-11-24T15:08:37.456Z,13.01
2017-11-24T15:11:04.241Z,12.84
2017-11-24T15:13:30.945Z,12.63
2017-11-24T15:15:57.653Z,12.60
2017-11-24T15:18:24.351Z,12.55
2017-11-24T15:20:51.019Z,12.38
2017-11-24T15:23:17.696Z,12.24
2017-11-24T15:25:44.447Z,12.11
2017-11-24T15:28:11.943Z,12.08
2017-11-24T15:30:38.615Z,11.90
2017-11-24T15:33:05.364Z,11.88
2017-11-24T15:35:32.027Z,11.69
2017-11-24T15:37:58.752Z,11.70
2017-11-24T15:40:25.502Z,11.56
2017-11-24T15:42:53.041Z,11.14
2017-11-24T15:45:20.611Z,11.17
2017-11-24T15:47:47.346Z,10.97
2017-11-24T15:50:14.007Z,10.93
2017-11-24T15:52:40.697Z,10.89
2017-11-24T15:55:07.426Z,10.67
2017-11-24T15:57:34.838Z,10.56
2017-11-24T16:00:02.312Z,10.58
2017-11-24T16:02:29.021Z,10.60
2017-11-24T16:04:55.691Z,10.39
2017-11-24T16:07:23.109Z,10.39
2017-11-24T16:09:50.554Z,10.23
2017-11-24T16:12:17.996Z,10.07
2017-11-24T16:14:44.745Z,9.98
2017-11-24T16:17:12.220Z,9.96
2017-11-24T16:19:39.691Z,9.74
2017-11-24T16:22:07.229Z,9.86
2017-11-24T16:24:33.939Z,9.69
2017-11-24T16:27:00.700Z,9.70
2017-11-24T16:29:27.408Z,9.57
2017-11-24T16:31:54.184Z,9.48
2017-11-24T16:34:20.878Z,9.45
2017-11-24T16:36:47.612Z,9.18
2017-11-24T16:39:15.101Z,9.16
2017-11-24T16:41:41.823Z,9.21
2017-11-24T16:44:09.258Z,9.18
2017-11-24T16:46:36.015Z,9.35
2017-11-24T16:49:02.809Z,9.25
2017-11-24T16:51:29.597Z,9.27
2017-11-24T16:53:56.348Z,8.84
2017-11-24T16:56:23.024Z,8.90
2017-11-24T16:58:49.732Z,9.13
2017-11-24T17:01:16.863Z,8.90
2017-11-24T17:03:44.439Z,8.96
2017-11-24T17:06:11.134Z,8.98
2017-11-24T17:08:38.042Z,8.76
2017-11-24T17:11:04.808Z,8.58
2017-11-24T17:13:31.569Z,8.67
2017-11-24T17:15:58.329Z,8.71
2017-11-24T17:18:25.078Z,8.78
2017-11-24T17:20:51.806Z,8.63
2017-11-24T17:23:18.568Z,8.50
2017-11-24T17:25:45.344Z,8.49
2017-11-24T17:28:12.135Z,8.52
2017-11-24T17:30:38.851Z,8.58
2017-11-24T17:33:06.298Z,8.64
2017-11-24T17:35:32.979Z,8.57
2017-11-24T17:37:59.708Z,8.50
2017-11-24T17:40:27.244Z,8.45
2017-11-24T17:42:53.955Z,8.56
2017-11-24T17:45:22.101Z,8.48
2017-11-24T17:47:48.861Z,8.03
2017-11-24T17:50:15.576Z,7.79
2017-11-24T17:52:43.040Z,7.68
2017-11-24T17:55:10.576Z,7.76
2017-11-24T17:57:38.139Z,7.79
2017-11-24T18:00:04.925Z,7.93
2017-11-24T18:02:31.712Z,8.01
2017-11-24T18:04:58.396Z,8.06
2017-11-24T18:07:25.958Z,7.98
2017-11-24T18:09:53.446Z,7.80
2017-11-24T18:12:20.126Z,7.60
2017-11-24T18:14:46.833Z,7.73
2017-11-24T18:17:13.650Z,7.80
2017-11-24T18:19:41.116Z,7.73
2017-11-24T18:22:08.863Z,7.66
2017-11-24T18:24:35.620Z,7.78
2017-11-24T18:27:03.207Z,7.88
2017-11-24T18:29:29.961Z,7.87
2017-11-24T18:31:56.755Z,7.76
2017-11-24T18:34:23.507Z,7.65
2017-11-24T18:36:50.233Z,7.50
2017-11-24T18:39:16.978Z,7.43
2017-11-24T18:41:43.751Z,7.66
2017-11-24T18:44:10.496Z,7.82
2017-11-24T18:46:38.063Z,7.65
2017-11-24T18:49:05.506Z,7.78
2017-11-24T18:51:33.034Z,7.91
2017-11-24T18:53:59.762Z,7.94
2017-11-24T18:56:26.533Z,7.71
2017-11-24T18:58:53.778Z,7.64
2017-11-24T19:01:20.621Z,7.73
2017-11-24T19:03:47.364Z,7.86
2017-11-24T19:06:14.112Z,7.81
2017-11-24T19:08:40.846Z,7.84
2017-11-24T19:11:08.934Z,7.66
2017-11-24T19:13:37.163Z,7.83
2017-11-24T19:16:04.640Z,7.95
2017-11-24T19:18:32.799Z,7.91
2017-11-24T19:21:00.575Z,7.94
2017-11-24T19:23:27.312Z,7.95
2017-11-24T19:25:55.405Z,7.66
2017-11-24T19:28:23.401Z,7.67
2017-11-24T19:30:50.247Z,7.79
2017-11-24T19:33:17.007Z,7.87
2017-11-24T19:35:43.894Z,7.85
2017-11-24T19:38:10.755Z,7.98
2017-11-24T19:40:43.735Z,8.03
2017-11-24T19:43:10.946Z,7.99
2017-11-24T19:45:37.743Z,8.01
2017-11-24T19:48:08.804Z,7.78
2017-11-24T19:50:48.580Z,7.93
2017-11-24T19:53:16.113Z,7.79
2017-11-24T19:55:48.976Z,7.91
2017-11-24T19:58:16.484Z,7.96
2017-11-24T20:00:43.212Z,7.92
2017-11-24T20:03:11.542Z,7.93
2017-11-24T20:05:39.239Z,7.94
2017-11-24T20:08:05.972Z,7.94
2017-11-24T20:10:32.846Z,7.88
2017-11-24T20:13:00.730Z,7.79
2017-11-24T20:15:28.492Z,7.55
2017-11-24T20:17:56.017Z,7.61
2017-11-24T20:20:22.972Z,7.34
2017-11-24T20:22:49.918Z,7.47
2017-11-24T20:25:16.752Z,7.61
2017-11-24T20:27:43.533Z,7.63
2017-11-24T20:30:11.018Z,7.63
2017-11-24T20:32:37.764Z,7.59
2017-11-24T20:35:04.669Z,7.52
2017-11-24T20:37:31.544Z,7.43
2017-11-24T20:39:58.261Z,7.48
2017-11-24T20:42:24.972Z,7.30
2017-11-24T20:44:52.532Z,7.20
2017-11-24T20:47:19.223Z,7.14
2017-11-24T20:49:46.705Z,7.32
2017-11-24T20:52:13.407Z,7.20
2017-11-24T20:54:40.092Z,7.10
2017-11-24T20:57:06.795Z,6.95
2017-11-24T20:59:33.627Z,6.95
2017-11-24T21:02:00.333Z,7.11
2017-11-24T21:04:27.079Z,7.23
2017-11-24T21:06:53.846Z,6.92
2017-11-24T21:09:20.520Z,6.72
2017-11-24T21:11:47.295Z,6.95
2017-11-24T21:14:14.718Z,6.82
2017-11-24T21:16:41.461Z,6.81
2017-11-24T21:19:08.207Z,6.84
2017-11-24T21:21:34.914Z,6.97
2017-11-24T21:24:01.604Z,7.02
2017-11-24T21:26:28.352Z,6.65
2017-11-24T21:28:55.119Z,6.64
2017-11-24T21:31:22.708Z,6.85
2017-11-24T21:33:49.414Z,6.75
2017-11-24T21:36:16.824Z,6.67
2017-11-24T21:38:43.481Z,6.59
2017-11-24T21:41:10.170Z,6.67
2017-11-24T21:43:37.633Z,6.34
2017-11-24T21:46:05.036Z,6.39
2017-11-24T21:48:31.746Z,6.55
2017-11-24T21:50:58.408Z,6.52
2017-11-24T21:53:25.068Z,6.62
2017-11-24T21:55:51.808Z,6.63
2017-11-24T21:58:18.516Z,6.66
2017-11-24T22:00:45.191Z,6.49
2017-11-24T22:03:11.901Z,6.42
2017-11-24T22:05:39.334Z,6.15
2017-11-24T22:08:06.063Z,6.29
2017-11-24T22:10:32.786Z,6.50
2017-11-24T22:12:59.465Z,6.29
2017-11-24T22:15:26.244Z,6.18
2017-11-24T22:17:52.945Z,6.33
2017-11-24T22:20:19.645Z,6.37
2017-11-24T22:22:46.332Z,6.39
2017-11-24T22:25:13.023Z,6.30
2017-11-24T22:27:40.671Z,6.31
2017-11-24T22:30:08.222Z,6.27
2017-11-24T22:32:34.989Z,6.31
2017-11-24T22:35:01.714Z,6.32
2017-11-24T22:37:29.160Z,6.33
2017-11-24T22:39:55.875Z,6.31
2017-11-24T22:42:22.567Z,6.23
2017-11-24T22:44:50.020Z,6.19
2017-11-24T22:47:17.535Z,6.18
2017-11-24T22:49:44.247Z,6.20
2017-11-24T22:52:11.030Z,6.26
2017-11-24T22:54:37.848Z,6.26
2017-11-24T22:57:04.605Z,6.19
2017-11-24T22:59:31.389Z,5.98
2017-11-24T23:01:58.089Z,6.13
2017-11-24T23:04:24.806Z,6.15
2017-11-24T23:06:52.227Z,6.11
2017-11-24T23:09:18.945Z,6.11
2017-11-24T23:11:45.694Z,6.10
2017-11-24T23:14:12.409Z,6.17
2017-11-24T23:16:39.156Z,6.22
2017-11-24T23:19:05.883Z,6.19
2017-11-24T23:21:33.311Z,6.12
2017-11-24T23:24:00.030Z,6.16
2017-11-24T23:26:26.708Z,5.99
2017-11-24T23:28:53.419Z,6.00
2017-11-24T23:31:20.160Z,6.02
2017-11-24T23:33:46.878Z,5.97
2017-11-24T23:36:13.627Z,6.00
2017-11-24T23:38:40.349Z,5.94
2017-11-24T23:41:07.806Z,5.84
2017-11-24T23:43:34.451Z,5.49
2017-11-24T23:46:01.886Z,5.31
2017-11-24T23:48:28.691Z,5.13
2017-11-24T23:50:55.413Z,5.35
2017-11-24T23:53:22.101Z,5.55
2017-11-24T23:55:48.849Z,5.68
2017-11-24T23:58:15.611Z,5.79
